sensor_id;sensor_type;location;lat;lon;timestamp;temperature;humidity
4090;DHT22;2059;48.538;12.146;2023-07-29T00:00:40;20.40;99.90
4090;DHT22;2059;48.538;12.146;2023-07-29T00:05:42;20.40;99.90
4090;DHT22;2059;48.538;12.146;2023-07-29T00:10:45;20.30;99.90
4090;DHT22;2059;48.538;12.146;2023-07-29T00:15:47;20.30;99.90
4090;DHT22;2059;48.538;12.146;2023-07-29T00:20:48;20.30;99.90
4090;DHT22;2059;48.538;12.146;2023-07-29T00:25:52;20.30;99.90
4090;DHT22;2059;48.538;12.146;2023-07-29T00:30:53;20.30;99.90
4090;DHT22;2059;48.538;12.146;2023-07-29T00:35:56;20.40;99.90
4090;DHT22;2059;48.538;12.146;2023-07-29T00:41:03;20.30;99.90
4090;DHT22;2059;48.538;12.146;2023-07-29T00:46:05;20.40;99.90
4090;DHT22;2059;48.538;12.146;2023-07-29T00:51:08;20.30;99.90
4090;DHT22;2059;48.538;12.146;2023-07-29T00:56:12;20.30;99.90
4090;DHT22;2059;48.538;12.146;2023-07-29T01:01:14;20.30;99.90
4090;DHT22;2059;48.538;12.146;2023-07-29T01:06:22;20.30;99.90
4090;DHT22;2059;48.538;12.146;2023-07-29T01:11:35;20.30;99.90
4090;DHT22;2059;48.538;12.146;2023-07-29T01:16:42;20.30;99.90
4090;DHT22;2059;48.538;12.146;2023-07-29T01:21:46;20.30;99.90
4090;DHT22;2059;48.538;12.146;2023-07-29T01:26:49;20.30;99.90
4090;DHT22;2059;48.538;12.146;2023-07-29T01:31:52;20.30;99.90
4090;DHT22;2059;48.538;12.146;2023-07-29T01:36:58;20.30;99.90
4090;DHT22;2059;48.538;12.146;2023-07-29T01:42:04;20.20;99.90
4090;DHT22;2059;48.538;12.146;2023-07-29T01:47:06;20.20;99.90
4090;DHT22;2059;48.538;12.146;2023-07-29T01:52:08;20.20;99.90
4090;DHT22;2059;48.538;12.146;2023-07-29T01:57:11;20.10;99.90
4090;DHT22;2059;48.538;12.146;2023-07-29T02:02:13;20.00;99.90
4090;DHT22;2059;48.538;12.146;2023-07-29T02:07:15;20.00;99.90
4090;DHT22;2059;48.538;12.146;2023-07-29T02:12:18;19.90;99.90
4090;DHT22;2059;48.538;12.146;2023-07-29T02:17:20;20.00;99.90
4090;DHT22;2059;48.538;12.146;2023-07-29T02:22:22;19.90;99.90
4090;DHT22;2059;48.538;12.146;2023-07-29T02:27:25;19.80;99.90
4090;DHT22;2059;48.538;12.146;2023-07-29T02:32:27;19.70;99.90
4090;DHT22;2059;48.538;12.146;2023-07-29T02:37:29;19.70;99.90
4090;DHT22;2059;48.538;12.146;2023-07-29T02:42:32;19.60;99.90
4090;DHT22;2059;48.538;12.146;2023-07-29T02:47:34;19.60;99.90
4090;DHT22;2059;48.538;12.146;2023-07-29T02:52:36;19.60;99.90
4090;DHT22;2059;48.538;12.146;2023-07-29T02:57:39;19.50;99.90
4090;DHT22;2059;48.538;12.146;2023-07-29T03:02:41;19.50;99.90
4090;DHT22;2059;48.538;12.146;2023-07-29T03:07:42;19.50;99.90
4090;DHT22;2059;48.538;12.146;2023-07-29T03:12:46;19.40;99.90
4090;DHT22;2059;48.538;12.146;2023-07-29T03:17:48;19.40;99.90
4090;DHT22;2059;48.538;12.146;2023-07-29T03:22:50;19.40;99.90
4090;DHT22;2059;48.538;12.146;2023-07-29T03:27:53;19.40;99.90
4090;DHT22;2059;48.538;12.146;2023-07-29T03:32:55;19.30;99.90
4090;DHT22;2059;48.538;12.146;2023-07-29T03:37:56;19.30;99.90
4090;DHT22;2059;48.538;12.146;2023-07-29T03:42:59;19.30;99.90
4090;DHT22;2059;48.538;12.146;2023-07-29T03:48:01;19.20;99.90
4090;DHT22;2059;48.538;12.146;2023-07-29T03:53:03;19.20;99.90
4090;DHT22;2059;48.538;12.146;2023-07-29T03:58:07;19.20;99.90
4090;DHT22;2059;48.538;12.146;2023-07-29T04:03:09;19.30;99.90
4090;DHT22;2059;48.538;12.146;2023-07-29T04:08:10;19.30;99.90
4090;DHT22;2059;48.538;12.146;2023-07-29T04:13:13;19.20;99.90
4090;DHT22;2059;48.538;12.146;2023-07-29T04:18:15;19.20;99.90
4090;DHT22;2059;48.538;12.146;2023-07-29T04:23:17;19.20;99.90
4090;DHT22;2059;48.538;12.146;2023-07-29T04:28:20;19.30;99.90
4090;DHT22;2059;48.538;12.146;2023-07-29T04:33:22;19.40;99.90
4090;DHT22;2059;48.538;12.146;2023-07-29T04:38:30;19.50;99.90
4090;DHT22;2059;48.538;12.146;2023-07-29T04:43:33;19.50;99.90
4090;DHT22;2059;48.538;12.146;2023-07-29T04:48:35;19.60;99.90
4090;DHT22;2059;48.538;12.146;2023-07-29T04:53:36;19.70;99.90
4090;DHT22;2059;48.538;12.146;2023-07-29T04:58:40;19.70;99.90
4090;DHT22;2059;48.538;12.146;2023-07-29T05:03:41;19.70;99.90
4090;DHT22;2059;48.538;12.146;2023-07-29T05:08:43;19.80;99.90
4090;DHT22;2059;48.538;12.146;2023-07-29T05:13:46;20.00;99.90
4090;DHT22;2059;48.538;12.146;2023-07-29T05:18:48;19.90;99.90
4090;DHT22;2059;48.538;12.146;2023-07-29T05:23:50;19.80;99.90
4090;DHT22;2059;48.538;12.146;2023-07-29T05:28:53;19.80;99.90
4090;DHT22;2059;48.538;12.146;2023-07-29T05:33:55;19.80;99.90
4090;DHT22;2059;48.538;12.146;2023-07-29T05:38:57;19.90;99.90
4090;DHT22;2059;48.538;12.146;2023-07-29T05:44:00;20.00;99.90
4090;DHT22;2059;48.538;12.146;2023-07-29T05:49:02;20.10;99.90
4090;DHT22;2059;48.538;12.146;2023-07-29T05:54:03;20.40;99.90
4090;DHT22;2059;48.538;12.146;2023-07-29T05:59:07;20.60;99.90
4090;DHT22;2059;48.538;12.146;2023-07-29T06:04:08;20.80;99.90
4090;DHT22;2059;48.538;12.146;2023-07-29T06:09:10;20.90;99.90
4090;DHT22;2059;48.538;12.146;2023-07-29T06:14:13;21.00;99.90
4090;DHT22;2059;48.538;12.146;2023-07-29T06:19:15;21.20;99.90
4090;DHT22;2059;48.538;12.146;2023-07-29T06:24:17;21.30;99.90
4090;DHT22;2059;48.538;12.146;2023-07-29T06:29:20;21.40;99.90
4090;DHT22;2059;48.538;12.146;2023-07-29T06:34:22;21.70;99.90
4090;DHT22;2059;48.538;12.146;2023-07-29T06:39:23;21.90;99.90
4090;DHT22;2059;48.538;12.146;2023-07-29T06:44:27;22.10;99.90
4090;DHT22;2059;48.538;12.146;2023-07-29T06:49:28;22.20;99.90
4090;DHT22;2059;48.538;12.146;2023-07-29T06:54:30;22.30;99.90
4090;DHT22;2059;48.538;12.146;2023-07-29T06:59:33;22.10;99.90
4090;DHT22;2059;48.538;12.146;2023-07-29T07:04:35;22.20;99.90
4090;DHT22;2059;48.538;12.146;2023-07-29T07:09:37;22.10;99.90
4090;DHT22;2059;48.538;12.146;2023-07-29T07:14:40;22.20;99.90
4090;DHT22;2059;48.538;12.146;2023-07-29T07:19:41;22.30;99.90
4090;DHT22;2059;48.538;12.146;2023-07-29T07:24:44;22.60;99.90
4090;DHT22;2059;48.538;12.146;2023-07-29T07:29:47;22.70;99.90
4090;DHT22;2059;48.538;12.146;2023-07-29T07:34:48;22.40;99.90
4090;DHT22;2059;48.538;12.146;2023-07-29T07:39:50;22.20;99.90
4090;DHT22;2059;48.538;12.146;2023-07-29T07:44:53;22.20;99.90
4090;DHT22;2059;48.538;12.146;2023-07-29T07:49:55;22.10;99.90
4090;DHT22;2059;48.538;12.146;2023-07-29T07:54:57;22.10;99.90
4090;DHT22;2059;48.538;12.146;2023-07-29T08:00:00;22.10;99.90
4090;DHT22;2059;48.538;12.146;2023-07-29T08:05:01;22.00;99.90
4090;DHT22;2059;48.538;12.146;2023-07-29T08:10:04;21.70;99.90
4090;DHT22;2059;48.538;12.146;2023-07-29T08:15:08;21.60;99.90
4090;DHT22;2059;48.538;12.146;2023-07-29T08:20:10;21.60;99.90
4090;DHT22;2059;48.538;12.146;2023-07-29T08:25:11;21.50;99.90
4090;DHT22;2059;48.538;12.146;2023-07-29T08:30:15;21.60;99.90
4090;DHT22;2059;48.538;12.146;2023-07-29T08:35:18;21.90;99.90
4090;DHT22;2059;48.538;12.146;2023-07-29T08:40:27;22.20;99.90
4090;DHT22;2059;48.538;12.146;2023-07-29T08:45:31;22.40;99.90
4090;DHT22;2059;48.538;12.146;2023-07-29T08:50:36;22.60;99.90
4090;DHT22;2059;48.538;12.146;2023-07-29T08:55:38;22.60;99.90
4090;DHT22;2059;48.538;12.146;2023-07-29T09:00:42;22.50;99.90
4090;DHT22;2059;48.538;12.146;2023-07-29T09:05:44;22.70;99.90
4090;DHT22;2059;48.538;12.146;2023-07-29T09:10:47;22.80;99.90
4090;DHT22;2059;48.538;12.146;2023-07-29T09:15:54;22.80;99.90
4090;DHT22;2059;48.538;12.146;2023-07-29T09:20:58;22.80;99.90
4090;DHT22;2059;48.538;12.146;2023-07-29T09:26:01;22.90;99.90
4090;DHT22;2059;48.538;12.146;2023-07-29T09:31:04;23.20;99.90
4090;DHT22;2059;48.538;12.146;2023-07-29T09:36:09;23.40;99.90
4090;DHT22;2059;48.538;12.146;2023-07-29T09:41:12;23.40;99.90
4090;DHT22;2059;48.538;12.146;2023-07-29T09:46:16;23.80;99.90
4090;DHT22;2059;48.538;12.146;2023-07-29T09:51:18;24.70;99.90
4090;DHT22;2059;48.538;12.146;2023-07-29T09:56:24;25.40;99.90
4090;DHT22;2059;48.538;12.146;2023-07-29T10:01:28;25.90;99.90
4090;DHT22;2059;48.538;12.146;2023-07-29T10:06:30;26.30;99.90
4090;DHT22;2059;48.538;12.146;2023-07-29T10:11:32;26.30;99.90
4090;DHT22;2059;48.538;12.146;2023-07-29T10:16:36;26.40;99.90
4090;DHT22;2059;48.538;12.146;2023-07-29T10:21:39;26.80;99.90
4090;DHT22;2059;48.538;12.146;2023-07-29T10:26:50;26.80;99.90
4090;DHT22;2059;48.538;12.146;2023-07-29T10:31:54;27.40;99.60
4090;DHT22;2059;48.538;12.146;2023-07-29T10:36:59;27.70;98.80
4090;DHT22;2059;48.538;12.146;2023-07-29T10:42:03;27.40;99.10
4090;DHT22;2059;48.538;12.146;2023-07-29T10:47:12;26.80;99.00
4090;DHT22;2059;48.538;12.146;2023-07-29T10:52:14;26.30;99.50
4090;DHT22;2059;48.538;12.146;2023-07-29T10:57:30;26.20;99.90
4090;DHT22;2059;48.538;12.146;2023-07-29T11:02:36;25.70;99.90
4090;DHT22;2059;48.538;12.146;2023-07-29T11:07:48;25.40;99.90
4090;DHT22;2059;48.538;12.146;2023-07-29T11:12:50;24.80;99.90
4090;DHT22;2059;48.538;12.146;2023-07-29T11:17:56;24.50;99.90
4090;DHT22;2059;48.538;12.146;2023-07-29T11:22:59;24.10;99.90
4090;DHT22;2059;48.538;12.146;2023-07-29T11:28:01;23.80;99.90
4090;DHT22;2059;48.538;12.146;2023-07-29T11:33:04;23.50;99.90
4090;DHT22;2059;48.538;12.146;2023-07-29T11:38:06;23.30;99.90
4090;DHT22;2059;48.538;12.146;2023-07-29T11:43:08;22.90;99.90
4090;DHT22;2059;48.538;12.146;2023-07-29T11:48:11;22.70;99.90
4090;DHT22;2059;48.538;12.146;2023-07-29T11:53:13;22.60;99.90
4090;DHT22;2059;48.538;12.146;2023-07-29T11:58:15;22.80;99.90
4090;DHT22;2059;48.538;12.146;2023-07-29T12:03:19;22.80;99.90
4090;DHT22;2059;48.538;12.146;2023-07-29T12:08:21;23.00;99.90
4090;DHT22;2059;48.538;12.146;2023-07-29T12:13:24;23.00;99.90
4090;DHT22;2059;48.538;12.146;2023-07-29T12:18:31;23.20;99.90
4090;DHT22;2059;48.538;12.146;2023-07-29T12:23:33;23.70;99.90
4090;DHT22;2059;48.538;12.146;2023-07-29T12:28:35;24.40;99.90
4090;DHT22;2059;48.538;12.146;2023-07-29T12:33:38;24.60;99.90
4090;DHT22;2059;48.538;12.146;2023-07-29T12:38:43;25.00;99.90
4090;DHT22;2059;48.538;12.146;2023-07-29T12:43:45;25.60;99.90
4090;DHT22;2059;48.538;12.146;2023-07-29T12:48:48;26.20;99.90
4090;DHT22;2059;48.538;12.146;2023-07-29T12:53:51;26.50;99.90
4090;DHT22;2059;48.538;12.146;2023-07-29T12:58:53;26.20;99.90
4090;DHT22;2059;48.538;12.146;2023-07-29T13:03:56;26.00;99.90
4090;DHT22;2059;48.538;12.146;2023-07-29T13:08:58;25.80;99.90
4090;DHT22;2059;48.538;12.146;2023-07-29T13:14:00;26.10;99.90
4090;DHT22;2059;48.538;12.146;2023-07-29T13:19:03;26.30;99.90
4090;DHT22;2059;48.538;12.146;2023-07-29T13:24:05;26.40;99.90
4090;DHT22;2059;48.538;12.146;2023-07-29T13:29:06;27.10;99.90
4090;DHT22;2059;48.538;12.146;2023-07-29T13:34:10;27.00;99.90
4090;DHT22;2059;48.538;12.146;2023-07-29T13:39:11;26.40;99.90
4090;DHT22;2059;48.538;12.146;2023-07-29T13:44:13;25.90;99.90
4090;DHT22;2059;48.538;12.146;2023-07-29T13:49:16;25.60;99.90
4090;DHT22;2059;48.538;12.146;2023-07-29T13:54:18;25.50;99.90
4090;DHT22;2059;48.538;12.146;2023-07-29T13:59:20;25.50;99.90
4090;DHT22;2059;48.538;12.146;2023-07-29T14:04:23;25.50;99.90
4090;DHT22;2059;48.538;12.146;2023-07-29T14:09:25;25.60;99.90
4090;DHT22;2059;48.538;12.146;2023-07-29T14:14:27;25.60;99.90
4090;DHT22;2059;48.538;12.146;2023-07-29T14:19:31;25.40;99.90
4090;DHT22;2059;48.538;12.146;2023-07-29T14:24:33;25.20;99.90
4090;DHT22;2059;48.538;12.146;2023-07-29T14:29:34;25.00;99.90
4090;DHT22;2059;48.538;12.146;2023-07-29T14:34:37;24.80;99.90
4090;DHT22;2059;48.538;12.146;2023-07-29T14:39:39;24.80;99.90
4090;DHT22;2059;48.538;12.146;2023-07-29T14:44:41;24.70;99.90
4090;DHT22;2059;48.538;12.146;2023-07-29T14:49:44;24.60;99.90
4090;DHT22;2059;48.538;12.146;2023-07-29T14:54:46;24.60;99.90
4090;DHT22;2059;48.538;12.146;2023-07-29T14:59:48;24.90;99.90
4090;DHT22;2059;48.538;12.146;2023-07-29T15:04:51;25.30;99.90
4090;DHT22;2059;48.538;12.146;2023-07-29T15:09:53;25.60;99.90
4090;DHT22;2059;48.538;12.146;2023-07-29T15:14:54;25.60;99.90
4090;DHT22;2059;48.538;12.146;2023-07-29T15:19:57;25.60;99.90
4090;DHT22;2059;48.538;12.146;2023-07-29T15:24:59;25.60;99.90
4090;DHT22;2059;48.538;12.146;2023-07-29T15:30:01;25.40;99.90
4090;DHT22;2059;48.538;12.146;2023-07-29T15:35:05;25.30;99.90
4090;DHT22;2059;48.538;12.146;2023-07-29T15:40:08;25.10;99.90
4090;DHT22;2059;48.538;12.146;2023-07-29T15:45:10;24.70;99.90
4090;DHT22;2059;48.538;12.146;2023-07-29T15:50:13;24.50;99.90
4090;DHT22;2059;48.538;12.146;2023-07-29T15:55:16;24.30;99.90
4090;DHT22;2059;48.538;12.146;2023-07-29T16:00:17;24.00;99.90
4090;DHT22;2059;48.538;12.146;2023-07-29T16:05:21;23.90;99.90
4090;DHT22;2059;48.538;12.146;2023-07-29T16:10:23;23.60;99.90
4090;DHT22;2059;48.538;12.146;2023-07-29T16:15:25;23.40;99.90
4090;DHT22;2059;48.538;12.146;2023-07-29T16:20:28;23.30;99.90
4090;DHT22;2059;48.538;12.146;2023-07-29T16:25:29;23.30;99.90
4090;DHT22;2059;48.538;12.146;2023-07-29T16:30:31;23.30;99.90
4090;DHT22;2059;48.538;12.146;2023-07-29T16:35:34;23.30;99.90
4090;DHT22;2059;48.538;12.146;2023-07-29T16:40:36;23.20;99.90
4090;DHT22;2059;48.538;12.146;2023-07-29T16:45:38;23.00;99.90
4090;DHT22;2059;48.538;12.146;2023-07-29T16:50:41;22.90;99.90
4090;DHT22;2059;48.538;12.146;2023-07-29T16:55:43;22.50;99.90
4090;DHT22;2059;48.538;12.146;2023-07-29T17:00:44;22.40;99.90
4090;DHT22;2059;48.538;12.146;2023-07-29T17:05:47;22.30;99.90
4090;DHT22;2059;48.538;12.146;2023-07-29T17:10:51;22.20;99.90
4090;DHT22;2059;48.538;12.146;2023-07-29T17:15:53;22.00;99.90
4090;DHT22;2059;48.538;12.146;2023-07-29T17:20:57;22.00;99.90
4090;DHT22;2059;48.538;12.146;2023-07-29T17:25:59;21.90;99.90
4090;DHT22;2059;48.538;12.146;2023-07-29T17:31:01;21.80;99.90
4090;DHT22;2059;48.538;12.146;2023-07-29T17:36:04;21.80;99.90
4090;DHT22;2059;48.538;12.146;2023-07-29T17:41:06;21.60;99.90
4090;DHT22;2059;48.538;12.146;2023-07-29T17:46:08;21.60;99.90
4090;DHT22;2059;48.538;12.146;2023-07-29T17:51:11;21.50;99.90
4090;DHT22;2059;48.538;12.146;2023-07-29T17:56:13;21.50;99.90
4090;DHT22;2059;48.538;12.146;2023-07-29T18:01:15;21.50;99.90
4090;DHT22;2059;48.538;12.146;2023-07-29T18:06:18;21.40;99.90
4090;DHT22;2059;48.538;12.146;2023-07-29T18:11:20;21.40;99.90
4090;DHT22;2059;48.538;12.146;2023-07-29T18:16:22;21.40;99.90
4090;DHT22;2059;48.538;12.146;2023-07-29T18:21:25;21.30;99.90
4090;DHT22;2059;48.538;12.146;2023-07-29T18:26:27;21.20;99.90
4090;DHT22;2059;48.538;12.146;2023-07-29T18:31:28;21.30;99.90
4090;DHT22;2059;48.538;12.146;2023-07-29T18:36:32;21.10;99.90
4090;DHT22;2059;48.538;12.146;2023-07-29T18:41:34;21.10;99.90
4090;DHT22;2059;48.538;12.146;2023-07-29T18:46:35;21.10;99.90
4090;DHT22;2059;48.538;12.146;2023-07-29T18:51:39;21.00;99.90
4090;DHT22;2059;48.538;12.146;2023-07-29T18:56:41;21.10;99.90
4090;DHT22;2059;48.538;12.146;2023-07-29T19:01:42;21.00;99.90
4090;DHT22;2059;48.538;12.146;2023-07-29T19:06:45;21.00;99.90
4090;DHT22;2059;48.538;12.146;2023-07-29T19:11:49;21.00;99.90
4090;DHT22;2059;48.538;12.146;2023-07-29T19:16:50;21.00;99.90
4090;DHT22;2059;48.538;12.146;2023-07-29T19:21:54;21.00;99.90
4090;DHT22;2059;48.538;12.146;2023-07-29T19:26:55;21.00;99.90
4090;DHT22;2059;48.538;12.146;2023-07-29T19:31:58;21.00;99.90
4090;DHT22;2059;48.538;12.146;2023-07-29T19:37:01;20.90;99.90
4090;DHT22;2059;48.538;12.146;2023-07-29T19:42:03;20.90;99.90
4090;DHT22;2059;48.538;12.146;2023-07-29T19:47:06;20.90;99.90
4090;DHT22;2059;48.538;12.146;2023-07-29T19:52:10;21.00;99.90
4090;DHT22;2059;48.538;12.146;2023-07-29T19:57:11;20.90;99.90
4090;DHT22;2059;48.538;12.146;2023-07-29T20:02:13;20.90;99.90
4090;DHT22;2059;48.538;12.146;2023-07-29T20:07:16;20.90;99.90
4090;DHT22;2059;48.538;12.146;2023-07-29T20:12:18;20.90;99.90
4090;DHT22;2059;48.538;12.146;2023-07-29T20:17:20;20.80;99.90
4090;DHT22;2059;48.538;12.146;2023-07-29T20:22:23;20.80;99.90
4090;DHT22;2059;48.538;12.146;2023-07-29T20:27:25;20.80;99.90
4090;DHT22;2059;48.538;12.146;2023-07-29T20:32:27;20.80;99.90
4090;DHT22;2059;48.538;12.146;2023-07-29T20:37:30;20.80;99.90
4090;DHT22;2059;48.538;12.146;2023-07-29T20:42:32;20.80;99.90
4090;DHT22;2059;48.538;12.146;2023-07-29T20:47:34;20.90;99.90
4090;DHT22;2059;48.538;12.146;2023-07-29T20:52:38;20.80;99.90
4090;DHT22;2059;48.538;12.146;2023-07-29T20:57:39;20.80;99.90
4090;DHT22;2059;48.538;12.146;2023-07-29T21:02:41;20.80;99.90
4090;DHT22;2059;48.538;12.146;2023-07-29T21:07:44;20.80;99.90
4090;DHT22;2059;48.538;12.146;2023-07-29T21:12:46;20.80;99.90
4090;DHT22;2059;48.538;12.146;2023-07-29T21:17:48;20.80;99.90
4090;DHT22;2059;48.538;12.146;2023-07-29T21:22:51;20.80;99.90
4090;DHT22;2059;48.538;12.146;2023-07-29T21:27:52;20.70;99.90
4090;DHT22;2059;48.538;12.146;2023-07-29T21:32:54;20.80;99.90
4090;DHT22;2059;48.538;12.146;2023-07-29T21:37:57;20.70;99.90
4090;DHT22;2059;48.538;12.146;2023-07-29T21:42:59;20.70;99.90
4090;DHT22;2059;48.538;12.146;2023-07-29T21:48:01;20.60;99.90
4090;DHT22;2059;48.538;12.146;2023-07-29T21:53:04;20.70;99.90
4090;DHT22;2059;48.538;12.146;2023-07-29T21:58:06;20.70;99.90
4090;DHT22;2059;48.538;12.146;2023-07-29T22:03:08;20.60;99.90
4090;DHT22;2059;48.538;12.146;2023-07-29T22:08:11;20.60;99.90
4090;DHT22;2059;48.538;12.146;2023-07-29T22:13:13;20.60;99.90
4090;DHT22;2059;48.538;12.146;2023-07-29T22:18:15;20.60;99.90
4090;DHT22;2059;48.538;12.146;2023-07-29T22:23:18;20.60;99.90
4090;DHT22;2059;48.538;12.146;2023-07-29T22:28:20;20.60;99.90
4090;DHT22;2059;48.538;12.146;2023-07-29T22:33:22;20.60;99.90
4090;DHT22;2059;48.538;12.146;2023-07-29T22:38:29;20.60;99.90
4090;DHT22;2059;48.538;12.146;2023-07-29T22:43:34;20.80;99.90
4090;DHT22;2059;48.538;12.146;2023-07-29T22:48:36;20.70;99.90
4090;DHT22;2059;48.538;12.146;2023-07-29T22:53:39;20.60;99.90
4090;DHT22;2059;48.538;12.146;2023-07-29T22:58:40;20.60;99.90
4090;DHT22;2059;48.538;12.146;2023-07-29T23:03:42;20.60;99.90
4090;DHT22;2059;48.538;12.146;2023-07-29T23:08:45;20.60;99.90
4090;DHT22;2059;48.538;12.146;2023-07-29T23:13:47;20.60;99.90
4090;DHT22;2059;48.538;12.146;2023-07-29T23:18:49;20.60;99.90
4090;DHT22;2059;48.538;12.146;2023-07-29T23:23:52;20.60;99.90
4090;DHT22;2059;48.538;12.146;2023-07-29T23:28:54;20.50;99.90
4090;DHT22;2059;48.538;12.146;2023-07-29T23:33:55;20.50;99.90
4090;DHT22;2059;48.538;12.146;2023-07-29T23:38:58;20.50;99.90
4090;DHT22;2059;48.538;12.146;2023-07-29T23:44:00;20.50;99.90
4090;DHT22;2059;48.538;12.146;2023-07-29T23:49:02;20.50;99.90
4090;DHT22;2059;48.538;12.146;2023-07-29T23:54:05;20.60;99.90
4090;DHT22;2059;48.538;12.146;2023-07-29T23:59:08;20.50;99.90
